Time;durP1;ratioP1;P1;durP2;ratioP2;P2;SDS_P1;SDS_P2;PMS_P1;PMS_P2;Temp;Humidity;BMP_temperature;BMP_pressure;BME280_temperature;BME280_humidity;BME280_pressure;Samples;Min_cycle;Max_cycle;Signal;HPM_P1;HPM_P2
2023/08/02 00:02:22;;;;;;;2.35;2.15;;;16.60;99.90;;;;;;10521737;28;20209;-87
2023/08/02 00:07:28;;;;;;;4.65;2.08;;;16.20;99.90;;;;;;10540047;28;20202;-87
2023/08/02 00:12:31;;;;;;;2.10;1.77;;;15.90;99.90;;;;;;10539089;28;20244;-87
2023/08/02 00:17:33;;;;;;;4.60;2.13;;;15.80;99.90;;;;;;10539745;28;20197;-87
2023/08/02 00:22:38;;;;;;;4.30;2.08;;;15.50;99.90;;;;;;10539634;28;20258;-87
2023/08/02 00:27:41;;;;;;;2.00;1.58;;;15.30;99.90;;;;;;10539242;28;20197;-87
2023/08/02 00:32:47;;;;;;;5.05;2.17;;;15.00;99.90;;;;;;10538724;28;20213;-87
2023/08/02 00:37:50;;;;;;;2.65;2.17;;;15.00;99.90;;;;;;10504060;28;20286;-87
2023/08/02 00:42:52;;;;;;;3.00;2.47;;;14.90;99.90;;;;;;10520364;28;20210;-87
2023/08/02 00:47:57;;;;;;;2.05;1.85;;;14.80;99.90;;;;;;10538509;28;20219;-87
2023/08/02 00:53:00;;;;;;;2.42;2.10;;;14.90;99.90;;;;;;10520079;28;20221;-87
2023/08/02 00:58:02;;;;;;;6.00;2.38;;;15.00;99.90;;;;;;10519947;28;20626;-87
2023/08/02 01:03:05;;;;;;;3.63;3.00;;;15.00;99.90;;;;;;10519286;28;20583;-87
2023/08/02 01:08:13;;;;;;;5.38;3.25;;;15.20;99.90;;;;;;10519385;28;20224;-86
2023/08/02 01:13:18;;;;;;;2.72;2.17;;;15.20;99.90;;;;;;10537716;28;20284;-86
2023/08/02 01:18:21;;;;;;;2.15;1.95;;;15.20;99.90;;;;;;10537386;28;20609;-87
2023/08/02 01:23:24;;;;;;;5.85;3.28;;;15.30;99.90;;;;;;10518846;28;20263;-86
2023/08/02 01:28:28;;;;;;;5.32;3.60;;;15.40;99.90;;;;;;10536453;28;20209;-87
2023/08/02 01:33:52;;;;;;;4.70;3.72;;;15.30;99.90;;;;;;10519314;28;20638;-87
2023/08/02 01:38:54;;;;;;;11.20;3.00;;;15.20;99.90;;;;;;10536801;28;20626;-86
2023/08/02 01:43:57;;;;;;;5.72;2.80;;;15.20;99.90;;;;;;10502015;28;20207;-86
2023/08/02 01:49:00;;;;;;;4.50;2.72;;;15.20;99.90;;;;;;10518747;28;20202;-87
2023/08/02 01:54:02;;;;;;;5.13;3.10;;;15.10;99.90;;;;;;10536864;28;20223;-86
2023/08/02 01:59:05;;;;;;;4.13;3.47;;;15.10;99.90;;;;;;10517871;28;20197;-86
2023/08/02 02:04:07;;;;;;;4.25;3.85;;;15.10;99.90;;;;;;10535996;28;20219;-86
2023/08/02 02:09:10;;;;;;;8.18;4.03;;;15.10;99.90;;;;;;10536384;28;20239;-86
2023/08/02 02:14:13;;;;;;;4.13;3.72;;;15.10;99.90;;;;;;10536381;28;20198;-86
2023/08/02 02:19:15;;;;;;;5.93;4.25;;;15.00;99.90;;;;;;10536478;28;20194;-86
2023/08/02 02:24:17;;;;;;;6.63;4.60;;;15.10;99.90;;;;;;10517723;28;20194;-87
2023/08/02 02:29:20;;;;;;;10.15;5.13;;;15.10;99.90;;;;;;10517351;28;20198;-86
2023/08/02 02:34:23;;;;;;;5.43;4.43;;;15.00;99.90;;;;;;10518119;28;20197;-86
2023/08/02 02:39:25;;;;;;;6.15;4.05;;;14.80;99.90;;;;;;10524825;28;20229;-86
2023/08/02 02:44:44;;;;;;;4.85;3.40;;;14.60;99.90;;;;;;10525047;28;20258;-87
2023/08/02 02:49:46;;;;;;;4.95;3.75;;;14.50;99.90;;;;;;10543589;28;20667;-86
2023/08/02 02:54:49;;;;;;;8.30;4.80;;;14.40;99.90;;;;;;10524624;28;20255;-86
2023/08/02 02:59:51;;;;;;;4.85;3.30;;;14.30;99.90;;;;;;10542952;28;20259;-86
2023/08/02 03:04:54;;;;;;;3.35;3.05;;;14.40;99.90;;;;;;10542244;28;20621;-86
2023/08/02 03:09:57;;;;;;;4.72;3.78;;;14.10;99.90;;;;;;10541413;28;20263;-87
2023/08/02 03:14:59;;;;;;;3.00;2.70;;;14.00;99.90;;;;;;10541556;28;20545;-86
2023/08/02 03:20:02;;;;;;;5.38;3.50;;;13.90;99.90;;;;;;10542038;28;20247;-86
2023/08/02 03:25:05;;;;;;;3.10;2.80;;;13.90;99.90;;;;;;10541802;28;20723;-86
2023/08/02 03:30:08;;;;;;;3.42;3.10;;;13.80;99.90;;;;;;10540412;28;20591;-87
2023/08/02 03:35:10;;;;;;;4.50;2.55;;;13.80;99.90;;;;;;10541473;28;20562;-86
2023/08/02 03:40:13;;;;;;;2.78;2.53;;;13.80;99.90;;;;;;10523117;28;20286;-86
2023/08/02 03:45:15;;;;;;;2.67;2.47;;;13.90;99.90;;;;;;10522310;28;20619;-86
2023/08/02 03:50:18;;;;;;;4.32;2.63;;;14.00;99.90;;;;;;10540608;28;20283;-86
2023/08/02 03:55:20;;;;;;;3.80;2.90;;;14.20;99.90;;;;;;10539552;28;20545;-86
2023/08/02 04:00:23;;;;;;;4.25;2.75;;;14.20;99.90;;;;;;10540170;28;20619;-86
2023/08/02 04:05:26;;;;;;;3.80;2.42;;;14.50;99.90;;;;;;10522232;28;20581;-86
2023/08/02 04:10:28;;;;;;;3.13;2.75;;;14.40;99.90;;;;;;10539980;28;20587;-86
2023/08/02 04:15:31;;;;;;;4.50;3.15;;;14.80;99.90;;;;;;10521116;28;20239;-86
2023/08/02 04:20:38;;;;;;;2.05;1.88;;;14.90;99.90;;;;;;10521081;28;20237;-86
2023/08/02 04:25:41;;;;;;;4.72;3.03;;;15.20;99.90;;;;;;10521394;28;20193;-86
2023/08/02 04:30:49;;;;;;;5.65;3.85;;;15.40;99.90;;;;;;10538693;28;20267;-86
2023/08/02 04:35:52;;;;;;;4.85;3.28;;;15.40;99.90;;;;;;10538248;28;20624;-85
2023/08/02 04:40:56;;;;;;;7.00;3.30;;;15.40;99.90;;;;;;10537741;28;20233;-86
2023/08/02 04:45:59;;;;;;;4.00;3.13;;;15.60;99.90;;;;;;10538175;28;20214;-86
2023/08/02 04:51:09;;;;;;;2.10;1.48;;;15.60;99.90;;;;;;10538332;28;20232;-86
2023/08/02 04:56:13;;;;;;;2.60;2.20;;;15.90;99.90;;;;;;10520530;28;20547;-86
2023/08/02 05:01:15;;;;;;;2.55;2.00;;;16.20;99.90;;;;;;10537659;28;20224;-86
2023/08/02 05:06:18;;;;;;;4.03;2.47;;;16.50;99.90;;;;;;10520062;28;20197;-86
2023/08/02 05:11:20;;;;;;;4.32;3.08;;;16.50;99.90;;;;;;10519277;28;20221;-86
2023/08/02 05:16:23;;;;;;;2.85;1.80;;;16.80;99.90;;;;;;10537625;28;20546;-86
2023/08/02 05:21:25;;;;;;;1.70;1.60;;;16.90;99.90;;;;;;10537664;28;20202;-86
2023/08/02 05:26:28;;;;;;;5.53;2.70;;;17.10;99.90;;;;;;10519028;28;20214;-86
2023/08/02 05:31:30;;;;;;;2.65;2.30;;;17.40;99.90;;;;;;10519265;28;20275;-86
2023/08/02 05:36:32;;;;;;;5.00;2.40;;;17.60;99.90;;;;;;10518525;28;20667;-86
2023/08/02 05:41:35;;;;;;;2.65;1.90;;;17.40;99.90;;;;;;10536885;28;20234;-86
2023/08/02 05:46:37;;;;;;;1.65;1.50;;;17.70;99.90;;;;;;10537001;28;20246;-86
2023/08/02 05:51:41;;;;;;;1.58;1.48;;;17.80;99.90;;;;;;10535797;28;20217;-86
2023/08/02 05:56:44;;;;;;;2.05;1.80;;;18.10;99.00;;;;;;10536075;28;20617;-86
2023/08/02 06:01:46;;;;;;;2.70;1.85;;;18.30;99.30;;;;;;10536156;28;20753;-86
2023/08/02 06:06:49;;;;;;;2.35;1.33;;;18.50;97.60;;;;;;10536506;28;20259;-86
2023/08/02 06:11:52;;;;;;;3.00;2.20;;;18.60;97.50;;;;;;10522596;28;20275;-86
2023/08/02 06:16:55;;;;;;;4.05;2.42;;;18.70;97.40;;;;;;10525742;28;20259;-86
2023/08/02 06:21:57;;;;;;;4.63;2.40;;;18.90;96.20;;;;;;10543352;28;20610;-86
2023/08/02 06:27:00;;;;;;;2.00;1.80;;;18.90;96.70;;;;;;10544222;28;20655;-86
2023/08/02 06:32:03;;;;;;;2.30;2.10;;;19.10;95.60;;;;;;10542666;28;20247;-86
2023/08/02 06:37:05;;;;;;;2.88;1.80;;;19.20;95.30;;;;;;10543092;28;20229;-86
2023/08/02 06:42:08;;;;;;;3.55;2.30;;;19.40;94.40;;;;;;10543849;28;20362;-86
2023/08/02 06:47:10;;;;;;;3.97;2.30;;;19.40;95.20;;;;;;10543389;28;20197;-86
2023/08/02 06:52:13;;;;;;;2.05;1.67;;;19.30;94.70;;;;;;10543292;28;20243;-86
2023/08/02 06:57:16;;;;;;;2.00;1.80;;;19.30;93.80;;;;;;10543069;28;20219;-86
2023/08/02 07:02:18;;;;;;;2.35;2.05;;;19.10;94.70;;;;;;10524798;28;20244;-86
2023/08/02 07:07:21;;;;;;;3.72;2.25;;;19.10;94.80;;;;;;10524285;28;20201;-86
2023/08/02 07:12:23;;;;;;;5.13;2.50;;;19.10;94.30;;;;;;10542482;28;20222;-86
2023/08/02 07:17:26;;;;;;;2.17;1.95;;;19.00;95.00;;;;;;10524179;28;20535;-86
2023/08/02 07:22:29;;;;;;;2.33;1.40;;;19.00;95.50;;;;;;10506538;28;20251;-86
2023/08/02 07:27:32;;;;;;;1.73;1.60;;;19.20;94.40;;;;;;10523399;28;20574;-86
2023/08/02 07:32:35;;;;;;;3.15;1.80;;;19.40;94.60;;;;;;10541487;28;20206;-86
2023/08/02 07:37:37;;;;;;;2.58;1.75;;;19.50;94.50;;;;;;10506347;28;20314;-86
2023/08/02 07:42:40;;;;;;;2.55;2.08;;;19.50;93.60;;;;;;10523226;28;20223;-87
2023/08/02 07:47:43;;;;;;;2.50;1.83;;;19.50;94.50;;;;;;10522649;28;20198;-86
2023/08/02 07:52:45;;;;;;;1.70;1.60;;;19.70;93.50;;;;;;10540616;28;20213;-86
2023/08/02 07:57:49;;;;;;;2.08;1.88;;;19.80;92.70;;;;;;10539819;28;20686;-86
2023/08/02 08:02:52;;;;;;;2.25;1.70;;;19.90;91.30;;;;;;10540333;28;20224;-86
2023/08/02 08:07:54;;;;;;;3.80;2.47;;;20.10;90.60;;;;;;10521397;28;20620;-86
2023/08/02 08:12:57;;;;;;;3.13;1.85;;;20.30;92.30;;;;;;10540045;28;20271;-86
2023/08/02 08:17:59;;;;;;;1.45;1.33;;;20.40;90.10;;;;;;10539796;28;20205;-86
2023/08/02 08:23:02;;;;;;;2.67;2.33;;;20.60;89.00;;;;;;10521572;28;20194;-86
2023/08/02 08:28:04;;;;;;;2.30;1.90;;;20.70;88.10;;;;;;10521464;28;20193;-86
2023/08/02 08:33:08;;;;;;;7.00;2.35;;;20.70;86.90;;;;;;10538605;28;20240;-87
2023/08/02 08:38:11;;;;;;;6.78;5.43;;;20.70;91.20;;;;;;10538401;28;20221;-86
2023/08/02 08:43:13;;;;;;;4.85;3.20;;;20.90;90.80;;;;;;10538712;28;20604;-87
2023/08/02 08:48:16;;;;;;;4.43;2.53;;;20.90;91.40;;;;;;10537549;28;20233;-86
2023/08/02 08:53:28;;;;;;;4.95;2.60;;;21.00;86.80;;;;;;10538390;28;20214;-86
2023/08/02 08:58:35;;;;;;;3.05;1.90;;;21.20;86.20;;;;;;10538369;28;20216;-86
2023/08/02 09:03:38;;;;;;;4.07;2.33;;;21.10;83.20;;;;;;10538215;28;20788;-87
2023/08/02 09:08:47;;;;;;;2.65;1.63;;;21.00;90.10;;;;;;10519508;28;20201;-86
2023/08/02 09:14:11;;;;;;;2.33;1.77;;;21.10;84.20;;;;;;10518721;28;20225;-86
2023/08/02 09:19:22;;;;;;;3.20;2.30;;;21.00;85.90;;;;;;10536797;28;20209;-86
2023/08/02 09:24:36;;;;;;;3.35;2.28;;;21.20;85.00;;;;;;10519544;28;20190;-86
2023/08/02 09:29:50;;;;;;;3.97;2.58;;;21.50;87.40;;;;;;10519416;28;20697;-86
2023/08/02 09:34:58;;;;;;;2.42;1.80;;;21.70;78.40;;;;;;10536917;28;20570;-86
2023/08/02 09:40:04;;;;;;;2.88;1.90;;;21.50;82.20;;;;;;10518591;28;20786;-86
2023/08/02 09:45:08;;;;;;;2.25;2.05;;;21.70;78.70;;;;;;10522684;28;20205;-86
2023/08/02 09:50:16;;;;;;;4.10;2.00;;;22.10;73.70;;;;;;10527417;28;20254;-86
2023/08/02 09:55:18;;;;;;;3.85;1.83;;;22.00;77.00;;;;;;10544665;28;20221;-87
2023/08/02 10:00:21;;;;;;;3.05;2.22;;;22.20;75.30;;;;;;10544113;28;20210;-87
2023/08/02 10:05:25;;;;;;;1.73;1.63;;;22.00;70.90;;;;;;10545210;28;20251;-87
2023/08/02 10:10:37;;;;;;;2.10;1.88;;;22.10;70.50;;;;;;10545013;28;20193;-86
2023/08/02 10:15:41;;;;;;;5.07;2.30;;;22.30;69.60;;;;;;10544616;28;20217;-86
2023/08/02 10:20:46;;;;;;;3.75;2.10;;;22.60;72.90;;;;;;10543838;28;20259;-87
2023/08/02 10:25:49;;;;;;;2.20;1.90;;;22.70;67.50;;;;;;10543761;28;20259;-86
2023/08/02 10:30:52;;;;;;;1.95;1.83;;;22.40;65.30;;;;;;10525813;28;20259;-86
2023/08/02 10:36:05;;;;;;;2.00;1.90;;;22.60;69.80;;;;;;10524866;28;20251;-86
2023/08/02 10:41:19;;;;;;;1.83;1.73;;;22.50;64.10;;;;;;10543703;28;20283;-87
2023/08/02 10:46:22;;;;;;;2.95;2.05;;;22.40;66.00;;;;;;10542699;28;20206;-86
2023/08/02 10:51:32;;;;;;;4.65;2.00;;;22.30;72.00;;;;;;10543120;28;20549;-86
2023/08/02 10:56:51;;;;;;;1.67;1.58;;;22.40;72.30;;;;;;10541447;28;20274;-87
2023/08/02 11:02:00;;;;;;;5.85;2.10;;;22.70;66.50;;;;;;10542831;28;20668;-87
2023/08/02 11:07:21;;;;;;;2.75;1.73;;;22.80;72.30;;;;;;10542871;28;20197;-86
2023/08/02 11:12:27;;;;;;;5.90;2.15;;;23.20;74.60;;;;;;10523888;28;20259;-86
2023/08/02 11:17:29;;;;;;;1.80;1.70;;;22.90;70.70;;;;;;10542149;28;20247;-87
2023/08/02 11:22:38;;;;;;;3.78;1.60;;;22.80;68.40;;;;;;10542187;28;20266;-86
2023/08/02 11:27:40;;;;;;;1.77;1.67;;;22.90;66.50;;;;;;10541843;28;20550;-87
2023/08/02 11:32:47;;;;;;;2.15;1.73;;;23.00;64.30;;;;;;10522975;28;20229;-87
2023/08/02 11:37:51;;;;;;;2.20;1.40;;;23.20;66.20;;;;;;10540595;28;20230;-86
2023/08/02 11:42:53;;;;;;;1.75;1.58;;;23.40;64.70;;;;;;10523614;28;20202;-87
2023/08/02 11:47:58;;;;;;;1.92;1.70;;;23.50;58.60;;;;;;10541209;28;20224;-87
2023/08/02 11:53:08;;;;;;;1.98;1.50;;;23.60;57.10;;;;;;10540813;28;20213;-87
2023/08/02 11:58:12;;;;;;;2.00;1.40;;;23.50;56.90;;;;;;10539728;28;20201;-87
2023/08/02 12:03:15;;;;;;;3.40;1.27;;;23.50;56.30;;;;;;10540374;28;20202;-87
2023/08/02 12:08:19;;;;;;;2.15;1.45;;;23.70;56.70;;;;;;10539069;28;20247;-87
2023/08/02 12:13:21;;;;;;;3.88;1.63;;;23.90;58.60;;;;;;10539854;28;20577;-87
2023/08/02 12:18:24;;;;;;;2.95;1.50;;;23.90;57.00;;;;;;10521438;28;20259;-87
2023/08/02 12:23:30;;;;;;;5.25;1.58;;;23.70;55.70;;;;;;10539871;28;20536;-87
2023/08/02 12:28:47;;;;;;;2.70;1.65;;;23.80;56.20;;;;;;10521346;28;20259;-87
2023/08/02 12:33:50;;;;;;;4.93;1.38;;;23.90;53.60;;;;;;10539063;28;20221;-87
2023/08/02 12:38:53;;;;;;;2.15;1.95;;;24.10;56.30;;;;;;10519798;28;20229;-87
2023/08/02 12:43:56;;;;;;;2.13;1.60;;;24.10;48.90;;;;;;10538123;28;20606;-87
2023/08/02 12:49:02;;;;;;;3.70;1.70;;;24.20;47.90;;;;;;10537807;28;20239;-87
2023/08/02 12:54:06;;;;;;;1.58;1.42;;;23.90;46.40;;;;;;10538303;28;20213;-87
2023/08/02 12:59:08;;;;;;;1.75;1.23;;;23.80;48.10;;;;;;10520525;28;20243;-87
2023/08/02 13:04:10;;;;;;;2.28;1.20;;;24.10;50.50;;;;;;10538061;28;20193;-87
2023/08/02 13:09:14;;;;;;;2.28;1.52;;;23.90;48.90;;;;;;10538014;28;20223;-86
2023/08/02 13:14:17;;;;;;;1.60;1.35;;;24.10;47.30;;;;;;10519971;28;20217;-87
2023/08/02 13:19:19;;;;;;;2.38;1.30;;;24.00;45.60;;;;;;10518958;28;20259;-87
2023/08/02 13:24:22;;;;;;;2.05;0.70;;;24.20;46.50;;;;;;10536718;28;20217;-87
2023/08/02 13:29:24;;;;;;;1.25;1.02;;;24.40;42.80;;;;;;10524824;28;20287;-87
2023/08/02 13:34:27;;;;;;;1.35;1.10;;;24.50;42.40;;;;;;10495388;28;20264;-87
2023/08/02 13:39:29;;;;;;;4.30;1.60;;;24.40;43.20;;;;;;10476753;28;20283;-87
2023/08/02 13:44:33;;;;;;;5.50;1.33;;;24.30;44.60;;;;;;10495468;28;20224;-87
2023/08/02 13:49:36;;;;;;;1.30;1.13;;;24.20;44.60;;;;;;10477041;28;20202;-87
2023/08/02 13:54:39;;;;;;;3.92;2.00;;;24.30;46.10;;;;;;10494440;28;20249;-87
2023/08/02 13:59:41;;;;;;;2.97;1.52;;;24.40;42.30;;;;;;10495152;28;20252;-87
2023/08/02 14:04:44;;;;;;;6.00;1.42;;;24.40;42.40;;;;;;10495028;28;20206;-87
2023/08/02 14:09:48;;;;;;;2.03;1.50;;;24.40;41.60;;;;;;10494175;28;20657;-87
2023/08/02 14:14:50;;;;;;;3.80;1.58;;;24.40;39.80;;;;;;10495007;28;20233;-87
2023/08/02 14:19:53;;;;;;;2.20;1.40;;;24.40;39.00;;;;;;10477148;28;20207;-87
2023/08/02 14:24:55;;;;;;;4.47;1.30;;;24.40;38.10;;;;;;10494142;28;20206;-87
2023/08/02 14:29:58;;;;;;;2.13;1.40;;;24.60;37.10;;;;;;10494332;28;20198;-87
2023/08/02 14:35:03;;;;;;;1.33;1.17;;;24.70;38.60;;;;;;10500674;28;20226;-87
2023/08/02 14:40:06;;;;;;;2.35;1.63;;;24.90;37.50;;;;;;10500892;28;20287;-87
2023/08/02 14:45:09;;;;;;;1.67;1.17;;;24.90;33.80;;;;;;10501751;28;20722;-86
2023/08/02 14:50:11;;;;;;;1.70;1.20;;;25.10;33.20;;;;;;10500466;28;20260;-87
2023/08/02 14:55:15;;;;;;;1.70;1.17;;;25.20;33.20;;;;;;10501264;28;20291;-87
2023/08/02 15:00:17;;;;;;;1.25;1.15;;;25.40;34.10;;;;;;10483330;28;20240;-87
2023/08/02 15:05:21;;;;;;;4.90;1.60;;;25.30;33.30;;;;;;10501039;28;20199;-87
2023/08/02 15:10:23;;;;;;;1.75;1.27;;;25.40;33.60;;;;;;10499564;28;20210;-87
2023/08/02 15:15:26;;;;;;;5.40;1.42;;;25.30;30.80;;;;;;10499160;28;20233;-87
2023/08/02 15:20:28;;;;;;;2.60;1.00;;;25.00;29.80;;;;;;10500079;28;20190;-87
2023/08/02 15:25:31;;;;;;;2.08;1.10;;;24.90;30.10;;;;;;10481796;28;20210;-86
2023/08/02 15:30:34;;;;;;;3.70;1.17;;;24.80;28.80;;;;;;10498655;28;20210;-87
2023/08/02 15:35:38;;;;;;;2.47;1.27;;;24.60;30.10;;;;;;10498785;28;20218;-87
2023/08/02 15:40:41;;;;;;;2.53;0.77;;;24.50;30.30;;;;;;10498887;28;20288;-87
2023/08/02 15:45:43;;;;;;;0.90;0.70;;;24.60;28.70;;;;;;10499182;28;20256;-87
2023/08/02 15:50:46;;;;;;;3.17;1.35;;;24.60;29.00;;;;;;10498371;28;20207;-87
2023/08/02 15:55:48;;;;;;;1.40;1.05;;;24.70;29.80;;;;;;10498905;28;20214;-87
2023/08/02 16:00:51;;;;;;;2.97;1.00;;;24.70;29.50;;;;;;10498688;28;20198;-87
2023/08/02 16:05:54;;;;;;;4.15;1.23;;;24.40;32.50;;;;;;10498623;28;20202;-87
2023/08/02 16:10:57;;;;;;;1.67;1.10;;;24.40;32.80;;;;;;10498652;28;20203;-87
2023/08/02 16:15:59;;;;;;;1.33;1.23;;;24.50;32.30;;;;;;10498495;28;20218;-87
2023/08/02 16:21:02;;;;;;;8.93;1.92;;;24.40;34.00;;;;;;10500374;28;20190;-87
2023/08/02 16:26:04;;;;;;;2.75;1.35;;;24.10;34.30;;;;;;10500571;28;20252;-87
2023/08/02 16:31:07;;;;;;;7.55;1.60;;;24.00;36.00;;;;;;10499467;28;20209;-87
2023/08/02 16:36:09;;;;;;;4.72;1.40;;;23.80;36.80;;;;;;10480013;28;20276;-87
2023/08/02 16:41:12;;;;;;;3.30;1.40;;;23.60;37.80;;;;;;10499110;28;20219;-87
2023/08/02 16:46:15;;;;;;;4.90;1.38;;;23.40;38.30;;;;;;10496854;28;20544;-87
2023/08/02 16:51:17;;;;;;;2.20;1.20;;;23.20;34.80;;;;;;10496896;28;20611;-87
2023/08/02 16:56:20;;;;;;;1.83;1.38;;;23.10;35.60;;;;;;10496648;28;20260;-87
2023/08/02 17:01:23;;;;;;;4.60;1.80;;;23.00;36.90;;;;;;10495742;28;20210;-87
2023/08/02 17:06:26;;;;;;;2.10;1.30;;;22.90;37.40;;;;;;10495599;28;20576;-87
2023/08/02 17:11:28;;;;;;;2.33;1.30;;;22.80;36.80;;;;;;10496395;28;20256;-87
2023/08/02 17:16:31;;;;;;;1.70;1.30;;;22.80;38.40;;;;;;10478224;28;20269;-87
2023/08/02 17:21:36;;;;;;;2.20;1.05;;;22.70;37.40;;;;;;10477639;28;20255;-87
2023/08/02 17:26:40;;;;;;;3.28;1.77;;;22.60;37.60;;;;;;10495094;28;20256;-87
2023/08/02 17:31:42;;;;;;;2.15;1.42;;;22.40;37.60;;;;;;10478007;28;20202;-87
2023/08/02 17:36:45;;;;;;;4.38;1.25;;;22.30;38.40;;;;;;10495491;28;20214;-87
2023/08/02 17:41:48;;;;;;;1.98;1.00;;;22.30;39.30;;;;;;10494795;28;20201;-87
2023/08/02 17:46:51;;;;;;;6.85;1.45;;;22.10;40.50;;;;;;10495436;28;20551;-87
2023/08/02 17:51:54;;;;;;;5.65;1.20;;;22.00;41.40;;;;;;10477387;28;20259;-87
2023/08/02 17:56:56;;;;;;;2.53;1.40;;;21.90;42.60;;;;;;10476450;28;20290;-88
2023/08/02 18:01:59;;;;;;;5.18;2.20;;;21.80;44.00;;;;;;10495703;28;20210;-88
2023/08/02 18:07:02;;;;;;;2.50;2.00;;;21.70;45.60;;;;;;10501917;28;20252;-87
2023/08/02 18:12:05;;;;;;;2.58;1.80;;;21.70;47.60;;;;;;10503400;28;20195;-88
2023/08/02 18:17:08;;;;;;;3.95;1.75;;;21.50;48.00;;;;;;10484786;28;20222;-87
2023/08/02 18:22:10;;;;;;;1.65;1.50;;;21.40;48.90;;;;;;10502572;28;20202;-87
2023/08/02 18:27:13;;;;;;;2.72;1.90;;;21.40;49.90;;;;;;10501825;28;20267;-87
2023/08/02 18:32:15;;;;;;;5.68;1.58;;;21.30;54.30;;;;;;10467811;28;20272;-88
2023/08/02 18:37:18;;;;;;;4.25;1.77;;;21.10;60.30;;;;;;10483866;28;20242;-87
2023/08/02 18:42:21;;;;;;;2.13;1.63;;;20.80;66.10;;;;;;10502186;28;20240;-87
2023/08/02 18:47:23;;;;;;;5.50;1.52;;;20.60;64.60;;;;;;10501708;28;20264;-88
2023/08/02 18:52:26;;;;;;;1.92;1.27;;;20.60;68.50;;;;;;10500659;28;20207;-87
2023/08/02 18:57:35;;;;;;;3.50;2.05;;;20.30;73.10;;;;;;10482855;28;20256;-87
2023/08/02 19:02:37;;;;;;;2.90;1.33;;;20.10;77.30;;;;;;10500295;28;20202;-87
2023/08/02 19:07:41;;;;;;;5.03;1.90;;;19.90;84.30;;;;;;10500332;28;20268;-88
2023/08/02 19:12:44;;;;;;;7.72;2.05;;;19.80;87.30;;;;;;10500705;28;20203;-87
2023/08/02 19:17:46;;;;;;;1.90;1.67;;;19.60;90.60;;;;;;10481679;28;20226;-88
2023/08/02 19:22:49;;;;;;;3.63;1.90;;;19.60;90.60;;;;;;10499294;28;20605;-87
2023/08/02 19:27:53;;;;;;;3.00;1.88;;;19.50;91.50;;;;;;10500283;28;20195;-88
2023/08/02 19:32:56;;;;;;;2.70;1.52;;;19.40;91.80;;;;;;10499189;28;20214;-87
2023/08/02 19:37:58;;;;;;;2.47;1.50;;;19.30;92.70;;;;;;10499071;28;20230;-88
2023/08/02 19:43:07;;;;;;;3.90;1.60;;;19.30;92.90;;;;;;10500517;28;20273;-88
2023/08/02 19:48:10;;;;;;;5.07;1.77;;;19.30;93.00;;;;;;10481938;28;20261;-88
2023/08/02 19:53:18;;;;;;;2.75;1.65;;;19.30;93.80;;;;;;10498869;28;20264;-87
2023/08/02 19:58:21;;;;;;;5.22;2.10;;;19.30;93.90;;;;;;10464444;28;20251;-88
2023/08/02 20:03:26;;;;;;;3.42;2.45;;;19.20;94.60;;;;;;10498103;28;20271;-87
2023/08/02 20:08:31;;;;;;;3.63;1.80;;;19.20;95.10;;;;;;10498117;28;20202;-88
2023/08/02 20:13:37;;;;;;;3.88;1.50;;;19.20;94.90;;;;;;10480682;28;20564;-88
2023/08/02 20:18:40;;;;;;;3.00;2.08;;;19.20;95.30;;;;;;10479807;28;20198;-88
2023/08/02 20:23:43;;;;;;;4.57;1.77;;;19.20;95.50;;;;;;10479639;28;20206;-88
2023/08/02 20:28:47;;;;;;;2.20;1.63;;;19.20;95.00;;;;;;10496918;28;20190;-88
2023/08/02 20:33:53;;;;;;;2.65;1.65;;;19.10;95.90;;;;;;10479718;28;20628;-88
2023/08/02 20:38:56;;;;;;;4.10;1.58;;;19.10;96.90;;;;;;10497737;28;20222;-88
2023/08/02 20:43:58;;;;;;;2.17;1.63;;;19.10;96.20;;;;;;10497549;28;20271;-88
2023/08/02 20:49:06;;;;;;;2.35;1.58;;;19.10;97.30;;;;;;10496242;28;20540;-88
2023/08/02 20:54:09;;;;;;;5.15;1.58;;;19.10;97.30;;;;;;10496535;28;20217;-88
2023/08/02 20:59:13;;;;;;;1.50;1.40;;;19.10;97.50;;;;;;10496519;28;20194;-88
2023/08/02 21:04:16;;;;;;;2.50;1.55;;;19.20;96.90;;;;;;10495972;28;20210;-88
2023/08/02 21:09:19;;;;;;;1.50;1.10;;;19.30;96.80;;;;;;10495761;28;20206;-88
2023/08/02 21:14:22;;;;;;;3.10;1.83;;;19.30;96.60;;;;;;10495394;28;20222;-88
2023/08/02 21:19:26;;;;;;;2.13;1.80;;;19.30;96.70;;;;;;10495521;28;20279;-87
2023/08/02 21:24:29;;;;;;;2.40;1.65;;;19.30;96.40;;;;;;10496257;28;20187;-87
2023/08/02 21:29:33;;;;;;;2.42;1.63;;;19.30;96.20;;;;;;10496078;28;20198;-88
2023/08/02 21:34:35;;;;;;;1.65;1.48;;;19.40;96.00;;;;;;10477259;28;20583;-88
2023/08/02 21:39:44;;;;;;;2.72;1.70;;;19.40;95.90;;;;;;10494420;28;20256;-88
2023/08/02 21:44:47;;;;;;;2.58;1.85;;;19.40;94.70;;;;;;10494850;28;20206;-88
2023/08/02 21:49:53;;;;;;;1.63;1.45;;;19.50;95.60;;;;;;10476906;28;20279;-88
2023/08/02 21:54:55;;;;;;;2.80;1.80;;;19.40;94.80;;;;;;10477543;28;20279;-88
2023/08/02 21:59:58;;;;;;;2.67;1.80;;;19.40;95.30;;;;;;10495274;28;20239;-87
2023/08/02 22:05:01;;;;;;;4.15;1.67;;;19.40;95.50;;;;;;10495656;28;20206;-88
2023/08/02 22:10:05;;;;;;;2.38;1.80;;;19.40;94.90;;;;;;10494614;28;20210;-87
2023/08/02 22:15:09;;;;;;;1.75;1.60;;;19.30;96.20;;;;;;10476988;28;20272;-88
2023/08/02 22:20:11;;;;;;;2.22;1.80;;;19.10;97.00;;;;;;10493572;28;20749;-88
2023/08/02 22:25:14;;;;;;;1.98;1.60;;;19.10;96.70;;;;;;10493962;28;20620;-87
2023/08/02 22:30:16;;;;;;;3.58;1.80;;;19.10;96.80;;;;;;10493714;28;20202;-88
2023/08/02 22:35:20;;;;;;;1.58;1.45;;;19.10;96.90;;;;;;10476026;28;20219;-88
2023/08/02 22:40:23;;;;;;;1.42;1.33;;;19.00;96.80;;;;;;10459935;28;20230;-88
2023/08/02 22:45:26;;;;;;;4.28;1.85;;;19.00;95.50;;;;;;10476679;28;20203;-87
2023/08/02 22:50:28;;;;;;;4.25;1.92;;;19.20;96.40;;;;;;10475547;28;20268;-87
2023/08/02 22:55:35;;;;;;;2.58;2.03;;;19.10;97.20;;;;;;10500032;28;20230;-88
2023/08/02 23:00:38;;;;;;;3.28;1.70;;;18.90;97.30;;;;;;10501121;28;20198;-87
2023/08/02 23:05:43;;;;;;;2.60;1.83;;;18.90;98.10;;;;;;10500562;28;20244;-88
2023/08/02 23:10:45;;;;;;;2.22;1.63;;;18.80;99.40;;;;;;10483144;28;20232;-87
2023/08/02 23:15:48;;;;;;;1.85;1.48;;;18.80;98.10;;;;;;10499927;28;20252;-87
2023/08/02 23:20:52;;;;;;;1.85;1.60;;;18.80;99.40;;;;;;10500009;28;20583;-87
2023/08/02 23:26:12;;;;;;;2.05;1.55;;;18.60;99.80;;;;;;10482147;28;20206;-88
2023/08/02 23:31:15;;;;;;;2.35;1.60;;;18.50;99.80;;;;;;10500416;28;20194;-87
2023/08/02 23:36:18;;;;;;;6.05;1.88;;;18.50;99.90;;;;;;10500018;28;20587;-88
2023/08/02 23:41:20;;;;;;;4.30;1.80;;;18.50;99.90;;;;;;10499815;28;20244;-87
2023/08/02 23:46:23;;;;;;;2.20;1.60;;;18.40;99.90;;;;;;10499856;28;20228;-88
2023/08/02 23:51:25;;;;;;;1.65;1.55;;;18.30;99.90;;;;;;10499464;28;20259;-87
2023/08/02 23:56:28;;;;;;;1.95;1.67;;;18.30;99.90;;;;;;10499326;28;20292;-87
